createdAt,value
2019-01-13T00:03:20.595Z,5.58
2019-01-13T00:09:21.952Z,5.50
2019-01-13T00:15:24.777Z,4.95
2019-01-13T00:21:26.349Z,5.25
2019-01-13T00:27:27.688Z,3.98
2019-01-13T00:33:29.191Z,4.92
2019-01-13T00:39:30.787Z,3.95
2019-01-13T00:45:32.061Z,3.70
2019-01-13T00:51:33.473Z,4.30
2019-01-13T00:57:34.774Z,2.70
2019-01-13T01:03:36.510Z,2.92
2019-01-13T01:09:37.842Z,2.22
2019-01-13T01:15:39.205Z,3.05
2019-01-13T01:21:40.805Z,2.85
2019-01-13T01:27:42.397Z,3.17
2019-01-13T01:33:44.087Z,2.30
2019-01-13T01:39:45.393Z,2.55
2019-01-13T01:45:46.791Z,2.40
2019-01-13T01:51:48.205Z,3.85
2019-01-13T01:57:49.502Z,3.15
2019-01-13T02:03:50.919Z,3.30
2019-01-13T02:09:52.328Z,2.80
2019-01-13T02:15:53.725Z,2.90
2019-01-13T02:21:55.113Z,2.65
2019-01-13T02:27:56.658Z,2.85
2019-01-13T02:33:58.066Z,2.35
2019-01-13T02:39:59.346Z,2.55
2019-01-13T02:46:00.769Z,2.45
2019-01-13T02:52:04.319Z,3.00
2019-01-13T02:58:06.642Z,2.42
2019-01-13T03:04:08.220Z,2.67
2019-01-13T03:10:16.662Z,2.08
2019-01-13T03:16:17.957Z,3.85
2019-01-13T03:22:19.221Z,2.90
2019-01-13T03:28:20.597Z,4.00
2019-01-13T03:34:22.037Z,2.70
2019-01-13T03:40:23.655Z,3.12
2019-01-13T03:46:25.014Z,2.80
2019-01-13T03:52:26.393Z,3.20
2019-01-13T03:58:27.979Z,2.40
2019-01-13T04:04:29.496Z,3.87
2019-01-13T04:10:30.905Z,2.92
2019-01-13T04:16:33.118Z,3.70
2019-01-13T04:22:35.593Z,3.42
2019-01-13T04:28:37.048Z,2.87
2019-01-13T04:34:38.588Z,3.25
2019-01-13T04:40:40.175Z,6.92
2019-01-13T04:46:41.621Z,6.53
2019-01-13T04:52:42.990Z,5.62
2019-01-13T04:58:44.381Z,4.90
2019-01-13T05:04:45.698Z,3.62
2019-01-13T05:10:46.991Z,2.83
2019-01-13T05:16:48.292Z,3.55
2019-01-13T05:22:49.515Z,4.50
2019-01-13T05:28:50.914Z,9.88
2019-01-13T05:34:53.341Z,6.62
2019-01-13T05:40:54.664Z,5.05
2019-01-13T05:46:56.126Z,5.95
2019-01-13T05:52:58.600Z,8.20
2019-01-13T05:59:00.079Z,5.95
2019-01-13T06:05:01.549Z,6.00
2019-01-13T06:11:03.122Z,5.53
2019-01-13T06:17:04.421Z,5.15
2019-01-13T06:23:05.714Z,7.83
2019-01-13T06:29:07.129Z,8.10
2019-01-13T06:35:09.353Z,5.78
2019-01-13T06:41:10.627Z,6.45
2019-01-13T06:47:12.261Z,7.50
2019-01-13T06:53:13.778Z,6.85
2019-01-13T06:59:15.182Z,8.65
2019-01-13T07:05:17.705Z,6.55
2019-01-13T07:11:19.182Z,7.85
2019-01-13T07:17:21.681Z,5.50
2019-01-13T07:23:24.041Z,5.37
2019-01-13T07:29:25.427Z,8.75
2019-01-13T07:35:26.923Z,6.65
2019-01-13T07:41:28.402Z,8.55
2019-01-13T07:47:29.942Z,8.15
2019-01-13T07:53:31.530Z,7.85
2019-01-13T07:59:33.293Z,8.53
2019-01-13T08:05:34.707Z,7.50
2019-01-13T08:11:36.207Z,8.05
2019-01-13T08:17:37.999Z,8.55
2019-01-13T08:23:39.429Z,8.30
2019-01-13T08:29:40.936Z,8.05
2019-01-13T08:35:42.382Z,7.08
2019-01-13T08:41:44.127Z,7.25
2019-01-13T08:47:45.553Z,8.53
2019-01-13T08:53:46.965Z,8.03
2019-01-13T08:59:48.311Z,8.98
2019-01-13T09:05:49.823Z,6.97
2019-01-13T09:11:51.310Z,7.37
2019-01-13T09:17:52.760Z,8.10
2019-01-13T09:23:54.039Z,7.65
2019-01-13T09:29:56.209Z,7.10
2019-01-13T09:35:58.056Z,6.87
2019-01-13T09:41:59.625Z,8.10
2019-01-13T09:48:01.037Z,7.95
2019-01-13T09:54:02.991Z,9.80
2019-01-13T10:00:06.693Z,10.13
2019-01-13T10:06:08.508Z,10.70
2019-01-13T10:12:10.093Z,12.68
2019-01-13T10:18:11.563Z,11.28
2019-01-13T10:24:12.997Z,11.73
2019-01-13T10:30:15.737Z,12.10
2019-01-13T10:36:17.102Z,9.48
2019-01-13T10:42:18.532Z,9.73
2019-01-13T10:48:20.035Z,11.38
2019-01-13T10:54:21.379Z,10.55
2019-01-13T11:00:23.977Z,10.90
2019-01-13T11:06:25.251Z,11.35
2019-01-13T11:12:26.552Z,10.93
2019-01-13T11:18:28.025Z,12.20
2019-01-13T11:24:29.471Z,11.10
2019-01-13T11:30:31.002Z,8.38
2019-01-13T11:36:33.414Z,9.18
2019-01-13T11:42:36.834Z,8.33
2019-01-13T11:48:38.120Z,7.17
2019-01-13T11:54:39.725Z,6.65
2019-01-13T12:00:42.364Z,7.65
2019-01-13T12:06:44.825Z,5.37
2019-01-13T12:12:46.634Z,5.12
2019-01-13T12:18:47.977Z,7.87
2019-01-13T12:24:49.455Z,11.18
2019-01-13T12:30:50.921Z,5.10
2019-01-13T12:36:52.501Z,5.35
2019-01-13T12:42:54.399Z,2.70
2019-01-13T12:48:58.484Z,2.90
2019-01-13T12:54:59.914Z,2.90
2019-01-13T13:01:01.269Z,3.52
2019-01-13T13:07:03.522Z,2.65
2019-01-13T13:13:06.205Z,4.22
2019-01-13T13:19:07.507Z,3.17
2019-01-13T13:25:09.754Z,2.55
2019-01-13T13:31:13.189Z,1.77
2019-01-13T13:37:14.715Z,1.60
2019-01-13T13:43:15.982Z,2.58
2019-01-13T13:49:17.455Z,2.83
2019-01-13T13:55:18.875Z,2.10
2019-01-13T14:01:20.185Z,1.20
2019-01-13T14:07:22.712Z,1.45
2019-01-13T14:13:23.999Z,1.00
2019-01-13T14:19:25.263Z,1.30
2019-01-13T14:25:26.549Z,0.60
2019-01-13T14:31:27.855Z,0.53
2019-01-13T14:37:30.546Z,0.60
2019-01-13T14:43:32.362Z,0.70
2019-01-13T14:49:33.789Z,0.50
2019-01-13T14:55:35.374Z,0.60
2019-01-13T15:01:38.734Z,1.20
2019-01-13T15:07:40.973Z,1.07
2019-01-13T15:13:42.801Z,2.92
2019-01-13T15:25:53.606Z,1.80
2019-01-13T15:31:54.982Z,1.60
2019-01-13T15:37:56.488Z,2.12
2019-01-13T15:43:57.988Z,1.45
2019-01-13T15:50:00.320Z,1.25
2019-01-13T15:56:01.726Z,1.80
2019-01-13T16:02:03.491Z,1.80
2019-01-13T16:08:04.965Z,1.90
2019-01-13T16:14:06.564Z,1.90
2019-01-13T16:20:10.074Z,1.85
2019-01-13T16:26:11.457Z,2.72
2019-01-13T16:32:13.162Z,8.20
2019-01-13T16:38:14.705Z,5.10
2019-01-13T16:44:16.111Z,5.83
2019-01-13T16:50:18.209Z,3.85
2019-01-13T16:56:19.471Z,4.80
2019-01-13T17:02:22.097Z,2.35
2019-01-13T17:08:24.405Z,1.80
2019-01-13T17:14:25.788Z,1.60
2019-01-13T17:20:28.222Z,3.17
2019-01-13T17:26:29.668Z,4.83
2019-01-13T17:32:31.040Z,5.83
2019-01-13T17:38:32.440Z,3.20
2019-01-13T17:44:33.866Z,2.80
2019-01-13T17:50:35.331Z,2.62
2019-01-13T17:56:37.114Z,3.67
2019-01-13T18:02:38.819Z,3.80
2019-01-13T18:08:40.418Z,21.52
2019-01-13T18:14:41.974Z,8.30
2019-01-13T18:20:43.431Z,4.10
2019-01-13T18:26:44.737Z,4.40
2019-01-13T18:32:47.057Z,4.20
2019-01-13T18:38:48.451Z,3.55
2019-01-13T18:44:49.835Z,4.30
2019-01-13T18:50:52.366Z,3.10
2019-01-13T18:56:53.862Z,3.25
2019-01-13T19:02:55.338Z,4.35
2019-01-13T19:08:56.906Z,6.00
2019-01-13T19:14:59.570Z,6.17
2019-01-13T19:21:00.891Z,4.87
2019-01-13T19:27:02.371Z,5.53
2019-01-13T19:33:03.760Z,5.05
2019-01-13T19:39:06.353Z,4.85
2019-01-13T19:45:09.441Z,4.55
2019-01-13T19:51:12.000Z,2.65
2019-01-13T19:57:13.969Z,2.08
2019-01-13T20:03:15.451Z,2.40
2019-01-13T20:09:16.993Z,3.35
2019-01-13T20:15:19.641Z,2.37
2019-01-13T20:21:22.181Z,3.15
2019-01-13T20:27:23.497Z,3.15
2019-01-13T20:33:24.779Z,2.80
2019-01-13T20:39:26.265Z,2.95
2019-01-13T20:45:29.254Z,2.80
2019-01-13T20:51:30.862Z,4.47
2019-01-13T20:57:32.136Z,4.55
2019-01-13T21:03:33.708Z,3.52
2019-01-13T21:09:35.342Z,6.40
2019-01-13T21:15:36.686Z,5.00
2019-01-13T21:21:38.058Z,6.35
2019-01-13T21:27:39.777Z,6.05
2019-01-13T21:33:41.235Z,5.70
2019-01-13T21:39:42.858Z,5.87
2019-01-13T21:45:44.313Z,7.20
2019-01-13T21:51:45.789Z,6.30
2019-01-13T21:57:47.263Z,5.87
2019-01-13T22:03:48.734Z,5.55
2019-01-13T22:09:50.327Z,5.70
2019-01-13T22:15:52.786Z,4.92
2019-01-13T22:21:54.149Z,7.00
2019-01-13T22:27:55.465Z,6.55
2019-01-13T22:33:57.896Z,5.30
2019-01-13T22:39:59.274Z,5.85
2019-01-13T22:46:01.502Z,6.25
2019-01-13T22:52:04.871Z,6.50
2019-01-13T22:58:06.258Z,4.95
2019-01-13T23:04:08.706Z,5.10
2019-01-13T23:10:10.219Z,4.12
2019-01-13T23:16:11.859Z,3.33
2019-01-13T23:22:13.859Z,3.37
2019-01-13T23:28:15.411Z,3.22
2019-01-13T23:34:16.857Z,3.12
2019-01-13T23:40:18.150Z,3.50
2019-01-13T23:46:19.428Z,3.62
2019-01-13T23:52:20.927Z,3.70
2019-01-13T23:58:22.400Z,4.03
